Time;durP1;ratioP1;P1;durP2;ratioP2;P2;SDS_P1;SDS_P2;PMS_P1;PMS_P2;Temp;Humidity;BMP_temperature;BMP_pressure;BME280_temperature;BME280_humidity;BME280_pressure;Samples;Min_cycle;Max_cycle;Signal;HPM_P1;HPM_P2
2023/03/16 00:01:21;;;;;;;2.63;1.83;;;;;;;;;;5282461;28;20454;-70
2023/03/16 00:03:52;;;;;;;3.33;1.80;;;;;;;;;;5281604;28;20016;-70
2023/03/16 00:06:23;;;;;;;2.90;1.98;;;;;;;;;;5282650;28;20158;-70
2023/03/16 00:08:57;;;;;;;4.15;1.85;;;;;;;;;;5282537;28;20019;-70
2023/03/16 00:11:29;;;;;;;4.80;2.40;;;;;;;;;;5281135;28;20016;-70
2023/03/16 00:14:03;;;;;;;7.47;2.22;;;;;;;;;;5282435;28;20460;-70
2023/03/16 00:16:34;;;;;;;4.55;1.60;;;;;;;;;;5281465;28;20108;-70
2023/03/16 00:19:05;;;;;;;6.55;1.70;;;;;;;;;;5281877;28;20099;-70
2023/03/16 00:21:36;;;;;;;2.38;1.58;;;;;;;;;;5281795;28;20107;-69
2023/03/16 00:24:08;;;;;;;4.18;1.90;;;;;;;;;;5281862;28;20528;-69
2023/03/16 00:26:39;;;;;;;4.15;2.00;;;;;;;;;;5281962;28;20420;-70
2023/03/16 00:29:10;;;;;;;3.97;2.53;;;;;;;;;;5282288;28;20029;-69
2023/03/16 00:31:42;;;;;;;3.50;1.65;;;;;;;;;;5281463;28;20095;-70
2023/03/16 00:34:14;;;;;;;3.38;2.00;;;;;;;;;;5282339;28;20015;-70
2023/03/16 00:36:45;;;;;;;4.20;2.13;;;;;;;;;;5281513;28;20354;-70
2023/03/16 00:39:16;;;;;;;4.50;1.98;;;;;;;;;;5281671;28;20012;-70
2023/03/16 00:41:47;;;;;;;3.53;2.13;;;;;;;;;;5281578;28;20031;-70
2023/03/16 00:44:20;;;;;;;3.95;2.25;;;;;;;;;;5282121;28;20028;-70
2023/03/16 00:46:51;;;;;;;2.97;2.05;;;;;;;;;;5281484;28;20017;-70
2023/03/16 00:49:22;;;;;;;3.63;2.05;;;;;;;;;;5281873;28;20025;-70
2023/03/16 00:51:53;;;;;;;2.95;1.65;;;;;;;;;;5281689;28;20068;-70
2023/03/16 00:54:25;;;;;;;3.58;2.13;;;;;;;;;;5280827;28;20036;-70
2023/03/16 00:56:57;;;;;;;5.53;2.05;;;;;;;;;;5282200;28;20368;-70
2023/03/16 00:59:29;;;;;;;5.05;2.30;;;;;;;;;;5280763;28;20021;-71
2023/03/16 01:02:01;;;;;;;4.15;2.50;;;;;;;;;;5281997;28;20463;-71
2023/03/16 01:04:34;;;;;;;3.45;2.30;;;;;;;;;;5281273;28;20024;-70
2023/03/16 01:07:06;;;;;;;4.72;2.25;;;;;;;;;;5281208;28;20019;-70
2023/03/16 01:09:38;;;;;;;3.80;2.60;;;;;;;;;;5281685;28;20374;-70
2023/03/16 01:12:11;;;;;;;4.45;2.40;;;;;;;;;;5281896;28;20017;-71
2023/03/16 01:14:44;;;;;;;5.00;2.22;;;;;;;;;;5280355;28;20406;-69
2023/03/16 01:17:16;;;;;;;3.67;2.28;;;;;;;;;;5282141;28;20149;-69
2023/03/16 01:19:47;;;;;;;3.60;1.95;;;;;;;;;;5281353;28;20017;-69
2023/03/16 01:22:19;;;;;;;6.45;2.05;;;;;;;;;;5281069;28;20059;-69
2023/03/16 01:24:50;;;;;;;4.75;2.25;;;;;;;;;;5281531;28;20096;-69
2023/03/16 01:27:24;;;;;;;4.07;2.05;;;;;;;;;;5281847;28;20087;-70
2023/03/16 01:29:56;;;;;;;5.32;2.03;;;;;;;;;;5285831;28;20040;-69
2023/03/16 01:32:27;;;;;;;5.40;2.55;;;;;;;;;;5285092;28;20052;-70
2023/03/16 01:34:58;;;;;;;3.47;1.90;;;;;;;;;;5284866;28;20551;-69
2023/03/16 01:37:30;;;;;;;3.47;1.77;;;;;;;;;;5285003;28;20051;-69
2023/03/16 01:40:05;;;;;;;3.53;2.38;;;;;;;;;;5285535;28;20020;-69
2023/03/16 01:42:46;;;;;;;3.50;2.08;;;;;;;;;;5284226;28;20023;-71
2023/03/16 01:45:36;;;;;;;3.60;1.95;;;;;;;;;;5285363;28;20402;-69
2023/03/16 01:48:07;;;;;;;3.72;2.17;;;;;;;;;;5285344;28;20044;-70
2023/03/16 01:50:40;;;;;;;3.08;1.75;;;;;;;;;;5283799;28;20094;-69
2023/03/16 01:53:12;;;;;;;5.03;1.60;;;;;;;;;;5285441;28;20039;-69
2023/03/16 01:55:43;;;;;;;4.13;1.98;;;;;;;;;;5283827;28;20040;-70
2023/03/16 01:58:15;;;;;;;5.13;2.13;;;;;;;;;;5285220;28;20012;-70
2023/03/16 02:00:46;;;;;;;2.90;2.03;;;;;;;;;;5284414;28;20459;-70
2023/03/16 02:03:18;;;;;;;3.22;2.00;;;;;;;;;;5284498;28;20024;-70
2023/03/16 02:05:49;;;;;;;3.42;1.90;;;;;;;;;;5284517;28;20044;-70
2023/03/16 02:08:21;;;;;;;4.20;2.00;;;;;;;;;;5284910;28;20021;-70
2023/03/16 02:10:54;;;;;;;4.22;1.83;;;;;;;;;;5283993;28;20090;-70
2023/03/16 02:13:28;;;;;;;3.50;1.80;;;;;;;;;;5284360;28;20063;-70
2023/03/16 02:15:59;;;;;;;3.88;1.80;;;;;;;;;;5284920;28;20021;-71
2023/03/16 02:18:30;;;;;;;3.83;1.88;;;;;;;;;;5283573;28;20074;-70
2023/03/16 02:21:20;;;;;;;4.30;1.73;;;;;;;;;;5284866;28;20020;-70
2023/03/16 02:23:51;;;;;;;;;;;;;;;;;;5283942;28;20665;-70
2023/03/16 02:26:34;;;;;;;6.35;2.05;;;;;;;;;;5284581;28;19910;-70
2023/03/16 02:29:12;;;;;;;4.60;2.20;;;;;;;;;;5284901;28;20028;-70
2023/03/16 02:31:45;;;;;;;4.03;1.63;;;;;;;;;;5283279;28;20032;-70
2023/03/16 02:34:17;;;;;;;4.50;2.00;;;;;;;;;;5284508;28;20059;-69
2023/03/16 02:36:51;;;;;;;3.65;1.83;;;;;;;;;;5284180;28;20040;-69
2023/03/16 02:39:22;;;;;;;6.97;2.00;;;;;;;;;;5283093;28;20016;-70
2023/03/16 02:41:53;;;;;;;6.68;2.08;;;;;;;;;;5284095;28;20545;-70
2023/03/16 02:44:27;;;;;;;3.53;1.45;;;;;;;;;;5283615;28;20115;-71
2023/03/16 02:47:01;;;;;;;3.15;1.80;;;;;;;;;;5283502;28;20020;-70
2023/03/16 02:49:37;;;;;;;3.45;1.48;;;;;;;;;;5283790;28;20021;-70
2023/03/16 02:52:08;;;;;;;2.85;1.48;;;;;;;;;;5283389;28;20028;-71
2023/03/16 02:54:40;;;;;;;4.25;2.40;;;;;;;;;;5283441;28;20039;-70
2023/03/16 02:57:11;;;;;;;4.35;2.00;;;;;;;;;;5284112;28;20024;-71
2023/03/16 02:59:42;;;;;;;3.25;1.40;;;;;;;;;;5282570;28;20101;-70
2023/03/16 03:02:13;;;;;;;2.83;1.92;;;;;;;;;;5284047;28;20548;-70
2023/03/16 03:04:47;;;;;;;4.43;1.65;;;;;;;;;;5283253;28;20078;-71
2023/03/16 03:07:19;;;;;;;4.00;2.20;;;;;;;;;;5283123;28;20016;-70
2023/03/16 03:09:52;;;;;;;5.50;2.20;;;;;;;;;;5283792;28;20056;-70
2023/03/16 03:12:23;;;;;;;4.22;2.17;;;;;;;;;;5283577;28;20103;-71
2023/03/16 03:14:56;;;;;;;3.47;1.67;;;;;;;;;;5282613;28;20107;-70
2023/03/16 03:17:28;;;;;;;3.13;1.83;;;;;;;;;;5283138;28;20033;-71
2023/03/16 03:20:12;;;;;;;3.58;1.30;;;;;;;;;;5282900;28;20021;-71
2023/03/16 03:22:44;;;;;;;4.00;1.65;;;;;;;;;;5283239;28;20017;-70
2023/03/16 03:25:16;;;;;;;5.13;2.40;;;;;;;;;;5283529;28;20356;-71
2023/03/16 03:27:48;;;;;;;4.57;2.10;;;;;;;;;;5282219;28;20027;-70
2023/03/16 03:30:20;;;;;;;4.00;1.85;;;;;;;;;;5283258;28;20099;-71
2023/03/16 03:32:51;;;;;;;4.05;1.67;;;;;;;;;;5282864;28;20028;-71
2023/03/16 03:35:22;;;;;;;3.78;2.08;;;;;;;;;;5282296;28;20087;-70
2023/03/16 03:37:53;;;;;;;4.72;2.08;;;;;;;;;;5282897;28;20028;-71
2023/03/16 03:40:25;;;;;;;4.78;1.65;;;;;;;;;;5282504;28;20468;-71
2023/03/16 03:42:56;;;;;;;3.70;1.60;;;;;;;;;;5282513;28;20029;-70
2023/03/16 03:45:27;;;;;;;3.17;1.95;;;;;;;;;;5282883;28;20040;-71
2023/03/16 03:47:58;;;;;;;3.22;1.58;;;;;;;;;;5282438;28;20130;-71
2023/03/16 03:50:29;;;;;;;2.92;1.52;;;;;;;;;;5281648;28;20044;-70
2023/03/16 03:53:01;;;;;;;3.33;1.88;;;;;;;;;;5282794;28;20077;-70
2023/03/16 03:55:32;;;;;;;4.68;1.70;;;;;;;;;;5281510;28;20028;-71
2023/03/16 03:58:03;;;;;;;4.63;1.58;;;;;;;;;;5282682;28;20031;-70
2023/03/16 04:00:34;;;;;;;3.95;1.50;;;;;;;;;;5282127;28;20025;-71
2023/03/16 04:03:05;;;;;;;5.05;1.85;;;;;;;;;;5281861;28;20581;-70
2023/03/16 04:05:36;;;;;;;4.57;1.55;;;;;;;;;;5281933;28;20027;-70
2023/03/16 04:08:08;;;;;;;4.53;1.83;;;;;;;;;;5282598;28;20020;-70
2023/03/16 04:10:39;;;;;;;2.72;1.35;;;;;;;;;;5281438;28;20471;-71
2023/03/16 04:13:11;;;;;;;4.07;1.70;;;;;;;;;;5282630;28;20079;-70
2023/03/16 04:15:45;;;;;;;2.85;1.20;;;;;;;;;;5281891;28;20029;-71
2023/03/16 04:18:16;;;;;;;2.80;1.20;;;;;;;;;;5281638;28;20016;-70
2023/03/16 04:20:48;;;;;;;2.20;1.05;;;;;;;;;;5281966;28;20104;-70
2023/03/16 04:23:20;;;;;;;2.20;1.34;;;;;;;;;;5281694;28;20032;-71
2023/03/16 04:25:51;;;;;;;4.85;1.25;;;;;;;;;;5281955;28;20024;-71
2023/03/16 04:28:25;;;;;;;3.08;1.10;;;;;;;;;;5282045;28;20016;-70
2023/03/16 04:31:00;;;;;;;6.13;1.40;;;;;;;;;;5281466;28;20055;-70
2023/03/16 04:33:31;;;;;;;2.03;1.08;;;;;;;;;;5281814;28;20020;-71
2023/03/16 04:36:03;;;;;;;3.92;1.10;;;;;;;;;;5282303;28;20028;-70
2023/03/16 04:38:35;;;;;;;1.63;1.10;;;;;;;;;;5280957;28;20383;-70
2023/03/16 04:41:06;;;;;;;3.03;1.02;;;;;;;;;;5282108;28;20021;-70
2023/03/16 04:43:37;;;;;;;3.35;1.63;;;;;;;;;;5281875;28;20028;-70
2023/03/16 04:46:09;;;;;;;3.17;1.23;;;;;;;;;;5281574;28;20024;-70
2023/03/16 04:48:40;;;;;;;2.42;1.33;;;;;;;;;;5281529;28;20016;-70
2023/03/16 04:51:11;;;;;;;2.60;1.20;;;;;;;;;;5281666;28;20051;-70
2023/03/16 04:53:43;;;;;;;3.22;1.50;;;;;;;;;;5280993;28;20067;-70
2023/03/16 04:56:17;;;;;;;4.32;1.30;;;;;;;;;;5282099;28;20409;-70
2023/03/16 04:58:49;;;;;;;1.92;0.85;;;;;;;;;;5281003;28;20022;-70
2023/03/16 05:01:20;;;;;;;2.78;1.10;;;;;;;;;;5281888;28;20021;-71
2023/03/16 05:03:52;;;;;;;3.55;1.10;;;;;;;;;;5285332;28;20013;-70
2023/03/16 05:06:23;;;;;;;2.13;1.00;;;;;;;;;;5285232;28;20035;-70
2023/03/16 05:08:54;;;;;;;3.15;1.10;;;;;;;;;;5286167;28;20025;-70
2023/03/16 05:11:25;;;;;;;2.30;0.70;;;;;;;;;;5285693;28;20032;-70
2023/03/16 05:13:56;;;;;;;4.00;0.93;;;;;;;;;;5285351;28;20070;-69
2023/03/16 05:16:28;;;;;;;3.40;1.27;;;;;;;;;;5285140;28;20024;-70
2023/03/16 05:19:00;;;;;;;2.55;1.10;;;;;;;;;;5285814;28;20077;-70
2023/03/16 05:21:33;;;;;;;3.38;1.02;;;;;;;;;;5284637;28;20017;-70
2023/03/16 05:24:04;;;;;;;4.93;1.17;;;;;;;;;;5285919;28;20031;-70
2023/03/16 05:26:35;;;;;;;5.32;0.98;;;;;;;;;;5284351;28;20020;-70
2023/03/16 05:29:07;;;;;;;3.05;0.80;;;;;;;;;;5285734;28;20024;-70
2023/03/16 05:31:38;;;;;;;2.55;0.70;;;;;;;;;;5284944;28;20193;-70
2023/03/16 05:34:09;;;;;;;3.20;0.70;;;;;;;;;;5285028;28;20017;-70
2023/03/16 05:36:40;;;;;;;2.50;0.90;;;;;;;;;;5284656;28;20036;-70
2023/03/16 05:39:12;;;;;;;4.15;0.80;;;;;;;;;;5285251;28;20089;-70
2023/03/16 05:41:43;;;;;;;4.45;1.00;;;;;;;;;;5284303;28;20107;-71
2023/03/16 05:44:14;;;;;;;3.33;1.00;;;;;;;;;;5285270;28;20035;-70
2023/03/16 05:46:45;;;;;;;4.35;1.00;;;;;;;;;;5285016;28;20024;-70
2023/03/16 05:49:17;;;;;;;4.03;0.98;;;;;;;;;;5284670;28;20017;-70
2023/03/16 05:51:51;;;;;;;3.55;0.90;;;;;;;;;;5284318;28;20053;-70
2023/03/16 05:54:22;;;;;;;2.78;0.75;;;;;;;;;;5284605;28;20027;-69
2023/03/16 05:56:53;;;;;;;2.28;0.73;;;;;;;;;;5283985;28;20479;-69
2023/03/16 05:59:24;;;;;;;3.63;0.93;;;;;;;;;;5284362;28;20074;-71
2023/03/16 06:01:55;;;;;;;4.85;0.90;;;;;;;;;;5284054;28;20475;-70
2023/03/16 06:04:27;;;;;;;3.60;0.90;;;;;;;;;;5283988;28;20024;-71
2023/03/16 06:06:58;;;;;;;3.42;1.10;;;;;;;;;;5285123;28;20030;-70
2023/03/16 06:09:29;;;;;;;3.40;1.00;;;;;;;;;;5283492;28;20020;-71
2023/03/16 06:12:00;;;;;;;2.28;0.98;;;;;;;;;;5284800;28;20024;-71
2023/03/16 06:14:31;;;;;;;1.83;0.85;;;;;;;;;;5283682;28;20467;-70
2023/03/16 06:17:03;;;;;;;3.60;0.88;;;;;;;;;;5283773;28;20111;-71
2023/03/16 06:19:34;;;;;;;2.03;0.93;;;;;;;;;;5284166;28;20039;-70
2023/03/16 06:22:05;;;;;;;4.03;1.17;;;;;;;;;;5284570;28;20012;-70
2023/03/16 06:24:36;;;;;;;2.80;0.85;;;;;;;;;;5283307;28;20020;-70
2023/03/16 06:27:07;;;;;;;3.10;0.93;;;;;;;;;;5284239;28;20074;-70
2023/03/16 06:29:39;;;;;;;2.85;0.80;;;;;;;;;;5283511;28;20063;-70
2023/03/16 06:32:10;;;;;;;2.90;0.90;;;;;;;;;;5284146;28;20016;-70
2023/03/16 06:34:41;;;;;;;4.13;1.30;;;;;;;;;;5283915;28;20032;-70
2023/03/16 06:37:13;;;;;;;3.30;0.93;;;;;;;;;;5283276;28;20222;-71
2023/03/16 06:39:44;;;;;;;3.35;0.90;;;;;;;;;;5283610;28;20024;-70
2023/03/16 06:42:15;;;;;;;3.65;0.90;;;;;;;;;;5284353;28;20020;-70
2023/03/16 06:44:46;;;;;;;4.15;1.00;;;;;;;;;;5282910;28;20070;-69
2023/03/16 06:47:18;;;;;;;2.83;0.95;;;;;;;;;;5284143;28;20012;-70
2023/03/16 06:49:50;;;;;;;3.92;1.10;;;;;;;;;;5283355;28;20027;-70
2023/03/16 06:52:21;;;;;;;5.32;1.15;;;;;;;;;;5282771;28;20024;-70
2023/03/16 06:54:53;;;;;;;5.35;0.98;;;;;;;;;;5283749;28;20056;-71
2023/03/16 06:57:24;;;;;;;1.88;0.90;;;;;;;;;;5283413;28;20020;-71
2023/03/16 06:59:55;;;;;;;2.38;0.80;;;;;;;;;;5283264;28;20016;-70
2023/03/16 07:02:26;;;;;;;4.05;0.80;;;;;;;;;;5283259;28;20088;-71
2023/03/16 07:04:58;;;;;;;1.75;0.85;;;;;;;;;;5282739;28;20024;-70
2023/03/16 07:07:29;;;;;;;2.50;0.90;;;;;;;;;;5283022;28;20028;-71
2023/03/16 07:10:00;;;;;;;3.22;1.00;;;;;;;;;;5283879;28;20103;-71
2023/03/16 07:12:31;;;;;;;3.95;0.82;;;;;;;;;;5282221;28;20104;-71
2023/03/16 07:15:03;;;;;;;3.28;0.98;;;;;;;;;;5283067;28;20531;-70
2023/03/16 07:17:34;;;;;;;1.92;0.75;;;;;;;;;;5282214;28;20024;-70
2023/03/16 07:20:09;;;;;;;5.22;1.05;;;;;;;;;;5282298;28;20021;-69
2023/03/16 07:22:40;;;;;;;4.55;1.10;;;;;;;;;;5282376;28;20542;-70
2023/03/16 07:25:12;;;;;;;3.38;0.80;;;;;;;;;;5282238;28;20100;-70
2023/03/16 07:27:45;;;;;;;3.20;0.80;;;;;;;;;;5281828;28;20416;-69
2023/03/16 07:30:16;;;;;;;4.32;0.90;;;;;;;;;;5283133;28;20077;-69
2023/03/16 07:32:48;;;;;;;2.63;1.00;;;;;;;;;;5282537;28;20028;-69
2023/03/16 07:35:20;;;;;;;2.13;0.77;;;;;;;;;;5281337;28;20478;-70
2023/03/16 07:37:51;;;;;;;2.67;0.80;;;;;;;;;;5282456;28;20115;-70
2023/03/16 07:40:22;;;;;;;2.42;1.15;;;;;;;;;;5281290;28;20028;-70
2023/03/16 07:42:54;;;;;;;3.13;0.70;;;;;;;;;;5282674;28;20027;-69
2023/03/16 07:45:25;;;;;;;1.95;0.73;;;;;;;;;;5282183;28;20020;-69
2023/03/16 07:47:56;;;;;;;4.05;1.58;;;;;;;;;;5281772;28;20035;-69
2023/03/16 07:50:27;;;;;;;4.82;1.23;;;;;;;;;;5281871;28;20040;-70
2023/03/16 07:52:59;;;;;;;3.72;0.80;;;;;;;;;;5282491;28;20035;-70
2023/03/16 07:55:30;;;;;;;2.72;0.90;;;;;;;;;;5280782;28;20052;-69
2023/03/16 07:58:03;;;;;;;3.83;0.70;;;;;;;;;;5282532;28;20100;-69
2023/03/16 08:00:35;;;;;;;2.10;0.80;;;;;;;;;;5281694;28;20055;-69
2023/03/16 08:03:06;;;;;;;2.00;0.70;;;;;;;;;;5281586;28;20025;-70
2023/03/16 08:05:37;;;;;;;6.40;1.00;;;;;;;;;;5282046;28;20095;-70
2023/03/16 08:08:08;;;;;;;2.28;0.80;;;;;;;;;;5281225;28;20016;-71
2023/03/16 08:10:40;;;;;;;4.10;0.77;;;;;;;;;;5281672;28;20051;-70
2023/03/16 08:13:11;;;;;;;2.05;0.90;;;;;;;;;;5282326;28;20020;-69
2023/03/16 08:15:46;;;;;;;3.05;1.00;;;;;;;;;;5280916;28;20044;-69
2023/03/16 08:18:17;;;;;;;3.25;1.10;;;;;;;;;;5282464;28;20468;-69
2023/03/16 08:20:49;;;;;;;3.65;1.35;;;;;;;;;;5281641;28;20020;-70
2023/03/16 08:23:22;;;;;;;2.63;0.70;;;;;;;;;;5281119;28;20525;-68
2023/03/16 08:25:54;;;;;;;4.78;1.20;;;;;;;;;;5281934;28;20479;-70
2023/03/16 08:28:26;;;;;;;2.78;0.90;;;;;;;;;;5281545;28;20016;-70
2023/03/16 08:30:57;;;;;;;2.33;0.70;;;;;;;;;;5281543;28;20020;-70
2023/03/16 08:33:28;;;;;;;2.88;0.63;;;;;;;;;;5281665;28;20019;-69
2023/03/16 08:35:59;;;;;;;2.63;0.68;;;;;;;;;;5281997;28;20040;-70
2023/03/16 08:38:31;;;;;;;3.05;0.80;;;;;;;;;;5280608;28;20028;-70
2023/03/16 08:41:02;;;;;;;4.80;0.80;;;;;;;;;;5282270;28;20016;-71
2023/03/16 08:43:33;;;;;;;2.35;0.80;;;;;;;;;;5281123;28;20020;-70
2023/03/16 08:46:05;;;;;;;5.18;0.80;;;;;;;;;;5282218;28;20501;-70
2023/03/16 08:48:36;;;;;;;2.95;0.90;;;;;;;;;;5281560;28;20095;-70
2023/03/16 08:51:09;;;;;;;2.88;1.55;;;;;;;;;;5281137;28;20072;-70
2023/03/16 08:53:40;;;;;;;2.22;0.75;;;;;;;;;;5277035;28;20489;-69
2023/03/16 08:56:13;;;;;;;2.55;0.98;;;;;;;;;;5281282;28;20029;-69
2023/03/16 08:58:44;;;;;;;2.83;0.80;;;;;;;;;;5280090;28;20025;-69
2023/03/16 09:01:17;;;;;;;2.47;1.00;;;;;;;;;;5281701;28;20367;-70
2023/03/16 09:03:50;;;;;;;3.88;0.70;;;;;;;;;;5281190;28;20069;-70
2023/03/16 09:06:21;;;;;;;3.42;0.70;;;;;;;;;;5280813;28;20416;-70
2023/03/16 09:08:52;;;;;;;3.88;0.93;;;;;;;;;;5280929;28;20103;-70
2023/03/16 09:11:27;;;;;;;3.78;0.93;;;;;;;;;;5280177;28;20495;-69
2023/03/16 09:13:59;;;;;;;5.13;0.95;;;;;;;;;;5279735;28;20535;-69
2023/03/16 09:16:30;;;;;;;1.63;0.60;;;;;;;;;;5280695;28;20107;-70
2023/03/16 09:19:01;;;;;;;3.58;0.93;;;;;;;;;;5279385;28;20025;-74
2023/03/16 09:21:35;;;;;;;2.42;0.70;;;;;;;;;;5281145;28;20044;-74
2023/03/16 09:24:07;;;;;;;2.40;0.60;;;;;;;;;;5281604;28;20107;-74
2023/03/16 09:26:39;;;;;;;3.13;1.02;;;;;;;;;;5279777;28;20066;-74
2023/03/16 09:29:10;;;;;;;2.40;0.70;;;;;;;;;;5281805;28;20024;-74
2023/03/16 09:31:42;;;;;;;2.38;0.70;;;;;;;;;;5281193;28;20040;-74
2023/03/16 09:34:13;;;;;;;2.67;0.70;;;;;;;;;;5280660;28;20016;-74
2023/03/16 09:36:44;;;;;;;3.78;0.60;;;;;;;;;;5280667;28;20467;-73
2023/03/16 09:39:16;;;;;;;2.75;0.60;;;;;;;;;;5281220;28;20043;-74
2023/03/16 09:41:57;;;;;;;2.83;0.60;;;;;;;;;;5280055;28;20059;-73
2023/03/16 09:44:47;;;;;;;4.05;0.73;;;;;;;;;;5280770;28;20025;-74
2023/03/16 09:47:24;;;;;;;2.13;0.60;;;;;;;;;;5280591;28;20016;-74
2023/03/16 09:49:57;;;;;;;4.97;0.80;;;;;;;;;;5284722;28;20081;-74
2023/03/16 09:52:42;;;;;;;2.67;0.60;;;;;;;;;;5284691;28;20051;-73
2023/03/16 09:55:28;;;;;;;3.75;0.73;;;;;;;;;;5284090;28;20077;-75
2023/03/16 09:58:03;;;;;;;4.60;0.60;;;;;;;;;;5285084;28;20013;-75
2023/03/16 10:00:40;;;;;;;2.83;0.50;;;;;;;;;;5284551;28;20021;-74
2023/03/16 10:03:20;;;;;;;2.47;0.52;;;;;;;;;;5285125;28;20021;-75
2023/03/16 10:05:57;;;;;;;4.22;0.90;;;;;;;;;;5284532;28;20091;-74
2023/03/16 10:08:37;;;;;;;2.35;0.70;;;;;;;;;;5283702;28;20061;-75
2023/03/16 10:11:24;;;;;;;2.33;0.60;;;;;;;;;;5284772;28;20022;-73
2023/03/16 10:13:55;;;;;;;2.42;0.50;;;;;;;;;;5284891;28;20051;-73
2023/03/16 10:16:27;;;;;;;2.85;0.50;;;;;;;;;;5283122;28;20056;-74
2023/03/16 10:19:07;;;;;;;3.55;0.60;;;;;;;;;;5284604;28;20099;-74
2023/03/16 10:21:39;;;;;;;4.78;0.60;;;;;;;;;;5284374;28;20013;-75
2023/03/16 10:24:29;;;;;;;2.60;0.50;;;;;;;;;;5283892;28;20024;-74
2023/03/16 10:27:01;;;;;;;2.47;0.50;;;;;;;;;;5284545;28;20044;-74
2023/03/16 10:29:35;;;;;;;1.98;0.50;;;;;;;;;;5283185;28;20406;-74
2023/03/16 10:32:11;;;;;;;3.42;0.50;;;;;;;;;;5284517;28;20051;-74
2023/03/16 10:34:44;;;;;;;2.60;0.50;;;;;;;;;;5283618;28;20028;-70
2023/03/16 10:37:15;;;;;;;2.90;0.40;;;;;;;;;;5283507;28;20116;-73
2023/03/16 10:39:47;;;;;;;2.80;0.50;;;;;;;;;;5283978;28;20083;-72
2023/03/16 10:42:20;;;;;;;2.00;0.43;;;;;;;;;;5283982;28;20020;-71
2023/03/16 10:45:00;;;;;;;2.67;0.50;;;;;;;;;;5283091;28;20021;-73
2023/03/16 10:47:32;;;;;;;3.30;0.65;;;;;;;;;;5283289;28;20024;-73
2023/03/16 10:50:11;;;;;;;1.83;0.60;;;;;;;;;;5283615;28;20043;-73
2023/03/16 10:52:43;;;;;;;2.28;0.60;;;;;;;;;;5283254;28;20091;-73
2023/03/16 10:55:29;;;;;;;2.22;0.50;;;;;;;;;;5283732;28;20028;-73
2023/03/16 10:58:01;;;;;;;2.17;0.55;;;;;;;;;;5282733;28;20384;-71
2023/03/16 11:00:37;;;;;;;1.58;0.40;;;;;;;;;;5283283;28;20024;-73
2023/03/16 11:03:37;;;;;;;2.65;0.60;;;;;;;;;;5283893;28;20027;-75
2023/03/16 11:06:19;;;;;;;3.15;0.60;;;;;;;;;;5273868;28;20044;-73
2023/03/16 11:08:51;;;;;;;2.13;0.50;;;;;;;;;;5283255;28;20097;-73
2023/03/16 11:11:29;;;;;;;1.27;0.40;;;;;;;;;;5282738;28;20020;-73
2023/03/16 11:14:03;;;;;;;2.05;0.50;;;;;;;;;;5283733;28;20044;-73
2023/03/16 11:16:49;;;;;;;3.08;0.65;;;;;;;;;;5282878;28;20040;-73
2023/03/16 11:19:32;;;;;;;2.50;0.40;;;;;;;;;;5282612;28;20503;-73
2023/03/16 11:22:12;;;;;;;1.88;0.50;;;;;;;;;;5283524;28;20036;-73
2023/03/16 11:24:43;;;;;;;2.15;0.50;;;;;;;;;;5282824;28;20024;-73
2023/03/16 11:27:25;;;;;;;2.85;0.40;;;;;;;;;;5283159;28;20031;-72
2023/03/16 11:30:04;;;;;;;1.77;0.32;;;;;;;;;;5283155;28;20271;-73
2023/03/16 11:32:36;;;;;;;2.95;0.45;;;;;;;;;;5281943;28;20502;-74
2023/03/16 11:35:15;;;;;;;3.45;0.50;;;;;;;;;;5283067;28;20420;-74
2023/03/16 11:38:05;;;;;;;1.90;0.40;;;;;;;;;;5281893;28;20170;-72
2023/03/16 11:40:52;;;;;;;1.85;0.40;;;;;;;;;;5281746;28;20027;-73
2023/03/16 11:43:42;;;;;;;1.50;0.40;;;;;;;;;;5282720;28;20036;-73
2023/03/16 11:46:30;;;;;;;1.20;0.30;;;;;;;;;;5281529;28;20044;-74
2023/03/16 11:49:13;;;;;;;2.58;0.30;;;;;;;;;;5278081;28;20048;-73
2023/03/16 11:51:44;;;;;;;2.10;0.30;;;;;;;;;;5281403;28;20084;-74
2023/03/16 11:54:34;;;;;;;3.47;0.50;;;;;;;;;;5281342;28;20066;-74
2023/03/16 11:57:12;;;;;;;3.45;0.50;;;;;;;;;;5282349;28;20032;-73
2023/03/16 11:59:50;;;;;;;3.00;0.40;;;;;;;;;;5277591;28;20048;-74
2023/03/16 12:02:36;;;;;;;3.67;0.40;;;;;;;;;;5273902;28;20020;-73
2023/03/16 12:05:26;;;;;;;2.42;0.35;;;;;;;;;;5282062;28;20028;-73
2023/03/16 12:08:15;;;;;;;2.05;0.40;;;;;;;;;;5273719;28;20024;-73
2023/03/16 12:10:56;;;;;;;1.65;0.40;;;;;;;;;;5261807;28;20025;-74
2023/03/16 12:13:46;;;;;;;3.03;0.40;;;;;;;;;;5260848;28;20017;-73
2023/03/16 12:16:19;;;;;;;2.05;0.30;;;;;;;;;;5260669;28;20040;-73
2023/03/16 12:18:53;;;;;;;3.78;0.60;;;;;;;;;;5260747;28;20051;-73
2023/03/16 12:21:30;;;;;;;1.05;0.30;;;;;;;;;;5263644;28;20024;-74
2023/03/16 12:24:02;;;;;;;2.53;0.50;;;;;;;;;;5282147;28;20044;-74
2023/03/16 12:26:37;;;;;;;1.95;0.30;;;;;;;;;;5281350;28;20096;-74
2023/03/16 12:29:23;;;;;;;1.92;0.30;;;;;;;;;;5281251;28;20099;-74
2023/03/16 12:31:54;;;;;;;3.33;0.43;;;;;;;;;;5281483;28;20056;-74
2023/03/16 12:34:37;;;;;;;2.30;0.40;;;;;;;;;;5281141;28;20474;-74
2023/03/16 12:37:13;;;;;;;4.22;0.60;;;;;;;;;;5280726;28;20036;-74
2023/03/16 12:39:44;;;;;;;1.30;0.40;;;;;;;;;;5281543;28;20100;-74
2023/03/16 12:42:40;;;;;;;3.28;0.40;;;;;;;;;;5281592;28;20100;-73
2023/03/16 12:45:14;;;;;;;4.68;0.40;;;;;;;;;;5282256;28;20394;-74
2023/03/16 12:47:47;;;;;;;1.70;0.30;;;;;;;;;;5281130;28;20435;-74
2023/03/16 12:50:19;;;;;;;2.83;0.40;;;;;;;;;;5280144;28;20496;-73
2023/03/16 12:52:51;;;;;;;1.60;0.30;;;;;;;;;;5280346;28;20024;-74
2023/03/16 12:55:39;;;;;;;1.35;0.38;;;;;;;;;;5280520;28;20024;-74
2023/03/16 12:58:11;;;;;;;1.92;0.40;;;;;;;;;;5281189;28;20032;-74
2023/03/16 13:00:43;;;;;;;1.40;0.30;;;;;;;;;;5281188;28;20400;-74
2023/03/16 13:03:16;;;;;;;1.80;0.55;;;;;;;;;;5281928;28;20098;-72
2023/03/16 13:05:51;;;;;;;1.75;0.30;;;;;;;;;;5280216;28;20020;-71
2023/03/16 13:08:23;;;;;;;2.65;0.40;;;;;;;;;;5281636;28;20025;-72
2023/03/16 13:11:05;;;;;;;1.48;0.30;;;;;;;;;;5280570;28;20026;-72
2023/03/16 13:13:51;;;;;;;2.63;0.47;;;;;;;;;;5281140;28;20071;-72
2023/03/16 13:16:24;;;;;;;2.60;0.40;;;;;;;;;;5280931;28;20033;-72
2023/03/16 13:18:55;;;;;;;2.63;0.40;;;;;;;;;;5280799;28;20021;-73
2023/03/16 13:21:35;;;;;;;1.95;0.40;;;;;;;;;;5281051;28;20021;-72
2023/03/16 13:24:20;;;;;;;1.83;0.40;;;;;;;;;;5283862;28;20020;-73
2023/03/16 13:26:52;;;;;;;3.70;0.40;;;;;;;;;;5283639;28;20016;-73
2023/03/16 13:29:28;;;;;;;2.03;0.40;;;;;;;;;;5283599;28;20279;-73
2023/03/16 13:32:01;;;;;;;1.42;0.30;;;;;;;;;;5283314;28;20033;-73
2023/03/16 13:34:36;;;;;;;2.90;0.40;;;;;;;;;;5283834;28;20398;-73
2023/03/16 13:37:13;;;;;;;2.05;0.43;;;;;;;;;;5284592;28;20039;-73
2023/03/16 13:40:03;;;;;;;1.05;0.30;;;;;;;;;;5283231;28;20483;-73
2023/03/16 13:42:35;;;;;;;3.33;0.30;;;;;;;;;;5284510;28;20046;-73
2023/03/16 13:45:11;;;;;;;1.48;0.38;;;;;;;;;;5285755;28;20039;-73
2023/03/16 13:47:43;;;;;;;2.42;0.30;;;;;;;;;;5284037;28;20017;-73
2023/03/16 13:50:15;;;;;;;3.70;0.47;;;;;;;;;;5284963;28;20170;-72
2023/03/16 13:52:51;;;;;;;1.60;0.30;;;;;;;;;;5283947;28;20040;-73
2023/03/16 13:55:28;;;;;;;3.55;0.35;;;;;;;;;;5284405;28;20064;-73
2023/03/16 13:58:00;;;;;;;1.58;0.40;;;;;;;;;;5285045;28;20016;-73
2023/03/16 14:00:35;;;;;;;1.75;0.30;;;;;;;;;;5283842;28;20464;-73
2023/03/16 14:03:15;;;;;;;2.97;0.52;;;;;;;;;;5284937;28;20024;-73
2023/03/16 14:05:46;;;;;;;1.85;0.20;;;;;;;;;;5284368;28;20091;-73
2023/03/16 14:08:22;;;;;;;1.73;0.30;;;;;;;;;;5284118;28;20124;-74
2023/03/16 14:10:55;;;;;;;2.30;0.30;;;;;;;;;;5284738;28;20017;-71
2023/03/16 14:13:26;;;;;;;1.42;0.40;;;;;;;;;;5284237;28;20021;-73
2023/03/16 14:16:02;;;;;;;1.42;0.20;;;;;;;;;;5283813;28;20028;-72
2023/03/16 14:18:33;;;;;;;1.33;0.30;;;;;;;;;;5284168;28;20020;-73
2023/03/16 14:21:08;;;;;;;3.17;0.40;;;;;;;;;;5283833;28;20028;-72
2023/03/16 14:23:43;;;;;;;2.75;0.30;;;;;;;;;;5284021;28;20639;-73
2023/03/16 14:26:17;;;;;;;1.42;0.30;;;;;;;;;;5284593;28;20494;-73
2023/03/16 14:28:56;;;;;;;2.70;0.40;;;;;;;;;;5283054;28;20039;-73
2023/03/16 14:31:38;;;;;;;2.88;0.40;;;;;;;;;;5284133;28;20024;-73
2023/03/16 14:34:27;;;;;;;2.00;0.30;;;;;;;;;;5284087;28;20094;-72
2023/03/16 14:37:05;;;;;;;1.80;0.30;;;;;;;;;;5283241;28;20029;-73
2023/03/16 14:39:39;;;;;;;1.23;0.28;;;;;;;;;;5283717;28;20436;-73
2023/03/16 14:42:17;;;;;;;1.25;0.20;;;;;;;;;;5283678;28;20028;-73
2023/03/16 14:44:49;;;;;;;2.25;0.30;;;;;;;;;;5283768;28;20078;-73
2023/03/16 14:47:22;;;;;;;1.52;0.28;;;;;;;;;;5283712;28;20025;-73
2023/03/16 14:49:56;;;;;;;2.45;0.30;;;;;;;;;;5282809;28;20012;-73
2023/03/16 14:52:30;;;;;;;1.80;0.30;;;;;;;;;;5283689;28;20032;-73
2023/03/16 14:55:09;;;;;;;1.75;0.20;;;;;;;;;;5284002;28;20016;-73
2023/03/16 14:57:40;;;;;;;1.52;0.30;;;;;;;;;;5282419;28;20032;-73
2023/03/16 15:00:14;;;;;;;2.40;0.30;;;;;;;;;;5284323;28;20017;-72
2023/03/16 15:02:56;;;;;;;1.67;0.20;;;;;;;;;;5283285;28;20013;-73
2023/03/16 15:05:30;;;;;;;2.10;0.30;;;;;;;;;;5282364;28;20026;-74
2023/03/16 15:08:02;;;;;;;1.10;0.30;;;;;;;;;;5283379;28;20017;-73
2023/03/16 15:10:34;;;;;;;2.72;0.30;;;;;;;;;;5282485;28;20020;-72
2023/03/16 15:13:14;;;;;;;1.25;0.20;;;;;;;;;;5283662;28;20039;-73
2023/03/16 15:15:47;;;;;;;2.55;0.30;;;;;;;;;;5283040;28;20028;-73
2023/03/16 15:18:18;;;;;;;1.65;0.30;;;;;;;;;;5282865;28;20035;-73
2023/03/16 15:20:52;;;;;;;3.15;0.40;;;;;;;;;;5282687;28;20091;-72
2023/03/16 15:23:23;;;;;;;3.35;0.30;;;;;;;;;;5283389;28;20394;-72